WAT1320 KTEB-KHKY
Flight info
| Callsign | WAT1320 |
|---|---|
| Flight time | 1h 38m |
| Altitude | 40000 |
| Route | LANNA J48 MOL FLASK |
| Aircraft | CL60/M-SADE3FGHIJ3J4J7P2RWXY/HB1D1 |
Departure
| Time | 2026-05-08 09:14 |
|---|---|
| Airport | Teterboro Airport (KTEB) |
Arrival
| Time | 2026-05-08 10:53 |
|---|---|
| Airport | Hickory Regional Airport (KHKY) |
| Time | Latitude | Longitude | Altitude | Speed | Heading |
|---|---|---|---|---|---|
| 2026-05-08 08:44 | 40.85563 | -74.06192 | 12 ft | 0 kts | 307° |
| 2026-05-08 09:09 | 40.85582 | -74.06201 | 12 ft | 4 kts | 26° |
| 2026-05-08 09:09 | 40.85577 | -74.06150 | 12 ft | 8 kts | 128° |
| 2026-05-08 09:09 | 40.85529 | -74.06082 | 12 ft | 11 kts | 141° |
| 2026-05-08 09:10 | 40.85437 | -74.06067 | 12 ft | 15 kts | 183° |
| 2026-05-08 09:10 | 40.85319 | -74.06077 | 11 ft | 18 kts | 184° |
| 2026-05-08 09:10 | 40.85178 | -74.06087 | 11 ft | 21 kts | 182° |
| 2026-05-08 09:10 | 40.85018 | -74.06100 | 11 ft | 24 kts | 184° |
| 2026-05-08 09:11 | 40.84839 | -74.06112 | 10 ft | 27 kts | 184° |
| 2026-05-08 09:11 | 40.84644 | -74.06126 | 10 ft | 28 kts | 184° |
| 2026-05-08 09:11 | 40.84441 | -74.06141 | 10 ft | 30 kts | 184° |
| 2026-05-08 09:11 | 40.84281 | -74.06151 | 10 ft | 19 kts | 183° |
| 2026-05-08 09:12 | 40.84136 | -74.06165 | 10 ft | 20 kts | 183° |
| 2026-05-08 09:12 | 40.84069 | -74.06169 | 10 ft | 6 kts | 183° |
| 2026-05-08 09:12 | 40.84018 | -74.06171 | 10 ft | 9 kts | 181° |
| 2026-05-08 09:12 | 40.83942 | -74.06178 | 10 ft | 12 kts | 185° |
| 2026-05-08 09:13 | 40.83891 | -74.06169 | 10 ft | 5 kts | 138° |
| 2026-05-08 09:13 | 40.83884 | -74.06117 | 10 ft | 7 kts | 90° |
| 2026-05-08 09:13 | 40.83887 | -74.06043 | 10 ft | 7 kts | 52° |
| 2026-05-08 09:13 | 40.83950 | -74.06033 | 10 ft | 18 kts | 2° |
| 2026-05-08 09:14 | 40.84398 | -74.06002 | 10 ft | 112 kts | 4° |
| 2026-05-08 09:14 | 40.85413 | -74.05930 | 263 ft | 168 kts | 2° |
| 2026-05-08 09:14 | 40.86624 | -74.05753 | 1129 ft | 183 kts | 12° |
| 2026-05-08 09:14 | 40.87814 | -74.04996 | 1779 ft | 206 kts | 28° |
| 2026-05-08 09:15 | 40.89059 | -74.03998 | 1960 ft | 210 kts | 21° |
| 2026-05-08 09:15 | 40.90464 | -74.03740 | 1962 ft | 202 kts | 343° |
| 2026-05-08 09:15 | 40.91593 | -74.04700 | 1972 ft | 198 kts | 304° |
| 2026-05-08 09:15 | 40.91976 | -74.06426 | 1983 ft | 199 kts | 272° |
| 2026-05-08 09:16 | 40.91912 | -74.08267 | 1987 ft | 202 kts | 268° |
| 2026-05-08 09:16 | 40.91615 | -74.10107 | 1973 ft | 205 kts | 248° |
| 2026-05-08 09:16 | 40.90794 | -74.11677 | 1978 ft | 209 kts | 232° |
| 2026-05-08 09:16 | 40.89793 | -74.13055 | 1976 ft | 210 kts | 231° |
| 2026-05-08 09:17 | 40.88832 | -74.14504 | 2006 ft | 207 kts | 236° |
| 2026-05-08 09:17 | 40.87978 | -74.16003 | 2415 ft | 205 kts | 239° |
| 2026-05-08 09:17 | 40.87157 | -74.17550 | 2889 ft | 209 kts | 240° |
| 2026-05-08 09:17 | 40.86322 | -74.19156 | 3375 ft | 211 kts | 241° |
| 2026-05-08 09:18 | 40.85504 | -74.20746 | 3851 ft | 212 kts | 241° |
| 2026-05-08 09:18 | 40.84672 | -74.22375 | 4331 ft | 213 kts | 241° |
| 2026-05-08 09:18 | 40.83848 | -74.23999 | 4789 ft | 215 kts | 242° |
| 2026-05-08 09:18 | 40.83013 | -74.25648 | 4968 ft | 217 kts | 242° |
| 2026-05-08 09:19 | 40.82172 | -74.27312 | 4974 ft | 216 kts | 242° |
| 2026-05-08 09:19 | 40.81346 | -74.28940 | 4975 ft | 215 kts | 242° |
| 2026-05-08 09:19 | 40.80513 | -74.30585 | 4975 ft | 214 kts | 242° |
| 2026-05-08 09:19 | 40.79692 | -74.32208 | 4977 ft | 214 kts | 242° |
| 2026-05-08 09:20 | 40.78869 | -74.33835 | 5062 ft | 211 kts | 242° |
| 2026-05-08 09:20 | 40.78044 | -74.35462 | 5447 ft | 215 kts | 242° |
| 2026-05-08 09:20 | 40.77198 | -74.37150 | 5846 ft | 229 kts | 242° |
| 2026-05-08 09:20 | 40.76303 | -74.38934 | 6247 ft | 234 kts | 242° |
| 2026-05-08 09:21 | 40.75400 | -74.40716 | 6646 ft | 236 kts | 242° |
| 2026-05-08 09:21 | 40.74485 | -74.42515 | 7052 ft | 237 kts | 242° |
| 2026-05-08 09:22 | 40.68928 | -74.53349 | 9465 ft | 240 kts | 242° |
| 2026-05-08 09:23 | 40.67986 | -74.55181 | 9873 ft | 241 kts | 242° |
| 2026-05-08 09:23 | 40.67046 | -74.57004 | 10275 ft | 241 kts | 242° |
| 2026-05-08 09:23 | 40.66096 | -74.58836 | 10680 ft | 242 kts | 242° |
| 2026-05-08 09:23 | 40.65144 | -74.60665 | 11081 ft | 243 kts | 242° |
| 2026-05-08 09:24 | 40.64186 | -74.62506 | 11478 ft | 244 kts | 242° |
| 2026-05-08 09:24 | 40.63230 | -74.64337 | 11880 ft | 245 kts | 242° |
| 2026-05-08 09:24 | 40.62270 | -74.66174 | 12283 ft | 248 kts | 242° |
| 2026-05-08 09:24 | 40.61259 | -74.68110 | 12688 ft | 263 kts | 242° |
| 2026-05-08 09:25 | 40.60204 | -74.70139 | 13093 ft | 275 kts | 242° |
| 2026-05-08 09:25 | 40.59119 | -74.72217 | 13491 ft | 278 kts | 242° |
| 2026-05-08 09:25 | 40.58039 | -74.74290 | 13885 ft | 278 kts | 242° |
| 2026-05-08 09:25 | 40.57171 | -74.76515 | 14295 ft | 269 kts | 261° |
| 2026-05-08 09:26 | 40.56891 | -74.78946 | 14696 ft | 268 kts | 266° |
| 2026-05-08 09:26 | 40.56616 | -74.81345 | 15085 ft | 269 kts | 264° |
| 2026-05-08 09:26 | 40.56358 | -74.83778 | 15490 ft | 268 kts | 267° |
| 2026-05-08 09:26 | 40.56216 | -74.86188 | 15877 ft | 268 kts | 269° |
| 2026-05-08 09:27 | 40.56134 | -74.88638 | 16293 ft | 268 kts | 270° |
| 2026-05-08 09:27 | 40.56078 | -74.91095 | 16683 ft | 269 kts | 270° |
| 2026-05-08 09:27 | 40.56026 | -74.93538 | 17081 ft | 271 kts | 270° |
| 2026-05-08 09:27 | 40.55967 | -74.96036 | 17504 ft | 272 kts | 271° |
| 2026-05-08 09:28 | 40.55880 | -74.98527 | 17896 ft | 275 kts | 268° |
| 2026-05-08 09:28 | 40.55718 | -75.01017 | 18292 ft | 276 kts | 267° |
| 2026-05-08 09:28 | 40.55281 | -75.03476 | 18703 ft | 281 kts | 251° |
| 2026-05-08 09:28 | 40.54195 | -75.05671 | 19113 ft | 292 kts | 238° |
| 2026-05-08 09:29 | 40.52913 | -75.07707 | 19513 ft | 293 kts | 238° |
| 2026-05-08 09:29 | 40.51606 | -75.09785 | 19932 ft | 293 kts | 239° |
| 2026-05-08 09:29 | 40.50296 | -75.11869 | 20332 ft | 293 kts | 239° |
| 2026-05-08 09:29 | 40.49004 | -75.13922 | 20736 ft | 293 kts | 239° |
| 2026-05-08 09:30 | 40.47710 | -75.15977 | 21140 ft | 293 kts | 239° |
| 2026-05-08 09:30 | 40.46400 | -75.18056 | 21554 ft | 294 kts | 239° |
| 2026-05-08 09:30 | 40.45101 | -75.20116 | 21940 ft | 295 kts | 239° |
| 2026-05-08 09:30 | 40.43802 | -75.22173 | 22344 ft | 296 kts | 239° |
| 2026-05-08 09:31 | 40.42475 | -75.24274 | 22747 ft | 297 kts | 239° |
| 2026-05-08 09:31 | 40.41157 | -75.26357 | 23145 ft | 297 kts | 239° |
| 2026-05-08 09:31 | 40.39848 | -75.28426 | 23569 ft | 298 kts | 240° |
| 2026-05-08 09:31 | 40.38521 | -75.30521 | 23954 ft | 299 kts | 240° |
| 2026-05-08 09:32 | 40.37189 | -75.32622 | 24375 ft | 300 kts | 240° |
| 2026-05-08 09:32 | 40.35846 | -75.34740 | 24774 ft | 301 kts | 240° |
| 2026-05-08 09:32 | 40.34517 | -75.36835 | 25163 ft | 301 kts | 240° |
| 2026-05-08 09:32 | 40.33191 | -75.38920 | 25572 ft | 301 kts | 240° |
| 2026-05-08 09:33 | 40.31834 | -75.41055 | 26000 ft | 302 kts | 240° |
| 2026-05-08 09:33 | 40.30502 | -75.43150 | 26391 ft | 304 kts | 241° |
| 2026-05-08 09:33 | 40.29136 | -75.45296 | 26787 ft | 304 kts | 240° |
| 2026-05-08 09:33 | 40.27783 | -75.47419 | 27213 ft | 304 kts | 241° |
| 2026-05-08 09:34 | 40.26431 | -75.49542 | 27615 ft | 306 kts | 241° |
| 2026-05-08 09:34 | 40.25061 | -75.51689 | 28017 ft | 308 kts | 241° |
| 2026-05-08 09:34 | 40.23654 | -75.53893 | 28425 ft | 308 kts | 241° |
| 2026-05-08 09:34 | 40.22280 | -75.56087 | 28841 ft | 308 kts | 243° |
| 2026-05-08 09:35 | 40.21055 | -75.58379 | 29247 ft | 305 kts | 246° |
| 2026-05-08 09:35 | 40.19895 | -75.60709 | 29651 ft | 306 kts | 246° |
| 2026-05-08 09:35 | 40.18720 | -75.63065 | 30059 ft | 308 kts | 246° |
| 2026-05-08 09:35 | 40.17522 | -75.65462 | 30458 ft | 311 kts | 246° |
| 2026-05-08 09:36 | 40.16331 | -75.67842 | 30866 ft | 313 kts | 246° |
| 2026-05-08 09:36 | 40.15130 | -75.70239 | 31271 ft | 316 kts | 246° |
| 2026-05-08 09:36 | 40.13908 | -75.72674 | 31679 ft | 319 kts | 245° |
| 2026-05-08 09:36 | 40.12675 | -75.75128 | 32085 ft | 322 kts | 246° |
| 2026-05-08 09:37 | 40.11442 | -75.77579 | 32494 ft | 324 kts | 245° |
| 2026-05-08 09:37 | 40.10216 | -75.80013 | 32872 ft | 327 kts | 245° |
| 2026-05-08 09:37 | 40.08952 | -75.82516 | 33271 ft | 327 kts | 245° |
| 2026-05-08 09:37 | 40.07688 | -75.85017 | 33679 ft | 328 kts | 245° |
| 2026-05-08 09:38 | 40.06440 | -75.87484 | 34071 ft | 327 kts | 245° |
| 2026-05-08 09:38 | 40.05176 | -75.89978 | 34483 ft | 326 kts | 245° |
| 2026-05-08 09:38 | 40.03930 | -75.92436 | 34877 ft | 326 kts | 245° |
| 2026-05-08 09:38 | 40.02686 | -75.94884 | 35278 ft | 324 kts | 245° |
| 2026-05-08 09:39 | 40.01435 | -75.97347 | 35678 ft | 322 kts | 245° |
| 2026-05-08 09:39 | 40.00210 | -75.99754 | 36071 ft | 319 kts | 245° |
| 2026-05-08 09:39 | 39.99002 | -76.02125 | 36464 ft | 316 kts | 245° |
| 2026-05-08 09:39 | 39.97779 | -76.04524 | 36863 ft | 312 kts | 245° |
| 2026-05-08 09:40 | 39.96596 | -76.06840 | 37260 ft | 308 kts | 245° |
| 2026-05-08 09:40 | 39.95409 | -76.09166 | 37657 ft | 303 kts | 246° |
| 2026-05-08 09:40 | 39.94248 | -76.11437 | 38052 ft | 298 kts | 246° |
| 2026-05-08 09:40 | 39.93127 | -76.13628 | 38470 ft | 293 kts | 245° |
| 2026-05-08 09:41 | 39.92007 | -76.15816 | 38862 ft | 288 kts | 246° |
| 2026-05-08 09:41 | 39.90910 | -76.17962 | 39242 ft | 284 kts | 245° |
| 2026-05-08 09:41 | 39.89822 | -76.20085 | 39630 ft | 278 kts | 246° |
| 2026-05-08 09:41 | 39.88747 | -76.22182 | 39946 ft | 275 kts | 245° |
| 2026-05-08 09:42 | 39.87680 | -76.24273 | 39985 ft | 280 kts | 246° |
| 2026-05-08 09:42 | 39.86605 | -76.26382 | 39984 ft | 285 kts | 245° |
| 2026-05-08 09:42 | 39.85486 | -76.28573 | 39989 ft | 291 kts | 245° |
| 2026-05-08 09:42 | 39.84361 | -76.30772 | 39990 ft | 296 kts | 245° |
| 2026-05-08 09:43 | 39.83204 | -76.33033 | 39989 ft | 302 kts | 245° |
| 2026-05-08 09:43 | 39.80840 | -76.37640 | 39985 ft | 312 kts | 245° |
| 2026-05-08 09:44 | 39.78390 | -76.42406 | 39975 ft | 322 kts | 244° |
| 2026-05-08 09:44 | 39.75868 | -76.47302 | 39979 ft | 330 kts | 245° |
| 2026-05-08 09:45 | 39.73272 | -76.52330 | 39974 ft | 338 kts | 245° |
| 2026-05-08 09:45 | 39.70627 | -76.57445 | 39980 ft | 345 kts | 244° |
| 2026-05-08 09:46 | 39.67930 | -76.62652 | 39973 ft | 352 kts | 244° |
| 2026-05-08 09:46 | 39.65180 | -76.67950 | 39977 ft | 358 kts | 244° |
| 2026-05-08 09:47 | 39.62371 | -76.73354 | 40008 ft | 364 kts | 244° |
| 2026-05-08 09:47 | 39.59525 | -76.78819 | 40021 ft | 370 kts | 243° |
| 2026-05-08 09:48 | 39.56613 | -76.84400 | 40024 ft | 375 kts | 243° |
| 2026-05-08 09:48 | 39.53675 | -76.90022 | 40024 ft | 379 kts | 243° |
| 2026-05-08 09:49 | 39.50717 | -76.95638 | 40035 ft | 383 kts | 242° |
| 2026-05-08 09:49 | 39.48983 | -76.98284 | 40032 ft | 394 kts | 234° |
| 2026-05-08 09:49 | 39.46894 | -77.00648 | 40031 ft | 401 kts | 229° |
| 2026-05-08 09:50 | 39.42550 | -77.05231 | 40030 ft | 402 kts | 229° |
| 2026-05-08 09:50 | 39.38224 | -77.09789 | 40028 ft | 402 kts | 230° |
| 2026-05-08 09:51 | 39.33902 | -77.14333 | 40037 ft | 400 kts | 230° |
| 2026-05-08 09:51 | 39.29610 | -77.18836 | 40042 ft | 399 kts | 229° |
| 2026-05-08 09:52 | 39.25297 | -77.23355 | 40047 ft | 399 kts | 229° |
| 2026-05-08 09:52 | 39.21013 | -77.27834 | 40052 ft | 398 kts | 230° |
| 2026-05-08 09:53 | 39.16710 | -77.32327 | 40050 ft | 398 kts | 229° |
| 2026-05-08 09:53 | 39.12416 | -77.36800 | 40054 ft | 398 kts | 230° |
| 2026-05-08 09:54 | 39.08104 | -77.41286 | 40054 ft | 397 kts | 230° |
| 2026-05-08 09:54 | 39.03813 | -77.45742 | 40057 ft | 397 kts | 230° |
| 2026-05-08 09:55 | 38.99536 | -77.50175 | 40058 ft | 395 kts | 230° |
| 2026-05-08 09:55 | 38.95268 | -77.54592 | 40067 ft | 394 kts | 230° |
| 2026-05-08 09:56 | 38.90987 | -77.59016 | 40068 ft | 395 kts | 230° |
| 2026-05-08 09:56 | 38.86707 | -77.63432 | 40056 ft | 394 kts | 230° |
| 2026-05-08 09:57 | 38.80277 | -77.70052 | 40070 ft | 393 kts | 230° |
| 2026-05-08 09:57 | 38.76013 | -77.74435 | 40069 ft | 394 kts | 230° |
| 2026-05-08 09:58 | 38.71738 | -77.78822 | 40067 ft | 395 kts | 231° |
| 2026-05-08 09:58 | 38.67457 | -77.83207 | 40078 ft | 395 kts | 230° |
| 2026-05-08 09:59 | 38.63442 | -77.87818 | 40064 ft | 379 kts | 239° |
| 2026-05-08 09:59 | 38.60286 | -77.93115 | 40061 ft | 373 kts | 243° |
| 2026-05-08 10:00 | 38.57172 | -77.98436 | 40062 ft | 373 kts | 242° |
| 2026-05-08 10:00 | 38.54089 | -78.03694 | 40057 ft | 373 kts | 243° |
| 2026-05-08 10:01 | 38.50967 | -78.09005 | 40054 ft | 373 kts | 242° |
| 2026-05-08 10:01 | 38.47863 | -78.14273 | 40058 ft | 372 kts | 243° |
| 2026-05-08 10:02 | 38.44774 | -78.19505 | 40064 ft | 371 kts | 243° |
| 2026-05-08 10:02 | 38.41666 | -78.24760 | 40061 ft | 371 kts | 242° |
| 2026-05-08 10:03 | 38.38564 | -78.29997 | 40067 ft | 371 kts | 243° |
| 2026-05-08 10:03 | 38.35455 | -78.35234 | 40058 ft | 371 kts | 243° |
| 2026-05-08 10:04 | 38.32350 | -78.40455 | 40077 ft | 370 kts | 243° |
| 2026-05-08 10:04 | 38.29236 | -78.45683 | 40070 ft | 370 kts | 243° |
| 2026-05-08 10:05 | 38.26125 | -78.50898 | 40068 ft | 369 kts | 243° |
| 2026-05-08 10:05 | 38.23030 | -78.56078 | 40085 ft | 369 kts | 243° |
| 2026-05-08 10:06 | 38.19934 | -78.61249 | 40076 ft | 367 kts | 244° |
| 2026-05-08 10:06 | 38.16833 | -78.66421 | 40075 ft | 367 kts | 243° |
| 2026-05-08 10:07 | 38.13751 | -78.71555 | 40077 ft | 367 kts | 243° |
| 2026-05-08 10:07 | 38.10681 | -78.76658 | 40080 ft | 366 kts | 243° |
| 2026-05-08 10:08 | 38.07594 | -78.81780 | 40089 ft | 364 kts | 243° |
| 2026-05-08 10:08 | 38.04539 | -78.86845 | 40084 ft | 363 kts | 243° |
| 2026-05-08 10:09 | 38.01466 | -78.91929 | 40087 ft | 363 kts | 244° |
| 2026-05-08 10:09 | 37.98404 | -78.96989 | 40084 ft | 362 kts | 243° |
| 2026-05-08 10:10 | 37.95332 | -79.02058 | 40082 ft | 362 kts | 243° |
| 2026-05-08 10:10 | 37.92269 | -79.07101 | 40084 ft | 360 kts | 243° |
| 2026-05-08 10:11 | 37.89104 | -79.12103 | 40089 ft | 366 kts | 239° |
| 2026-05-08 10:11 | 37.85670 | -79.16882 | 40087 ft | 367 kts | 240° |
| 2026-05-08 10:12 | 37.82236 | -79.21655 | 40079 ft | 367 kts | 240° |
| 2026-05-08 10:12 | 37.78794 | -79.26434 | 40083 ft | 367 kts | 239° |
| 2026-05-08 10:13 | 37.75355 | -79.31201 | 40086 ft | 366 kts | 240° |
| 2026-05-08 10:13 | 37.71934 | -79.35937 | 40090 ft | 365 kts | 240° |
| 2026-05-08 10:14 | 37.68525 | -79.40653 | 40101 ft | 365 kts | 239° |
| 2026-05-08 10:14 | 37.65091 | -79.45395 | 40089 ft | 364 kts | 240° |
| 2026-05-08 10:15 | 37.61669 | -79.50114 | 40088 ft | 364 kts | 240° |
| 2026-05-08 10:15 | 37.58273 | -79.54791 | 40083 ft | 364 kts | 240° |
| 2026-05-08 10:16 | 37.54837 | -79.59518 | 40089 ft | 364 kts | 240° |
| 2026-05-08 10:16 | 37.51435 | -79.64190 | 40090 ft | 363 kts | 241° |
| 2026-05-08 10:17 | 37.48019 | -79.68874 | 40094 ft | 364 kts | 239° |
| 2026-05-08 10:17 | 37.44593 | -79.73563 | 40107 ft | 361 kts | 240° |
| 2026-05-08 10:18 | 37.41198 | -79.78206 | 40111 ft | 361 kts | 240° |
| 2026-05-08 10:18 | 37.37801 | -79.82845 | 40105 ft | 361 kts | 240° |
| 2026-05-08 10:19 | 37.34404 | -79.87479 | 40107 ft | 361 kts | 241° |
| 2026-05-08 10:19 | 37.32698 | -79.89802 | 39810 ft | 358 kts | 240° |
| 2026-05-08 10:20 | 37.29388 | -79.94289 | 38943 ft | 345 kts | 241° |
| 2026-05-08 10:20 | 37.27769 | -79.96484 | 38481 ft | 339 kts | 242° |
| 2026-05-08 10:20 | 37.26185 | -79.98630 | 38047 ft | 333 kts | 242° |
| 2026-05-08 10:20 | 37.24637 | -80.00726 | 37614 ft | 327 kts | 243° |
| 2026-05-08 10:21 | 37.23087 | -80.02824 | 37183 ft | 321 kts | 243° |
| 2026-05-08 10:21 | 37.21589 | -80.04851 | 36769 ft | 315 kts | 242° |
| 2026-05-08 10:21 | 37.20103 | -80.06863 | 36338 ft | 310 kts | 242° |
| 2026-05-08 10:21 | 37.18653 | -80.08824 | 35925 ft | 304 kts | 244° |
| 2026-05-08 10:22 | 37.17228 | -80.10753 | 35533 ft | 300 kts | 242° |
| 2026-05-08 10:22 | 37.15819 | -80.12666 | 35129 ft | 302 kts | 244° |
| 2026-05-08 10:22 | 37.14399 | -80.14597 | 34733 ft | 304 kts | 243° |
| 2026-05-08 10:22 | 37.12944 | -80.16569 | 34324 ft | 306 kts | 243° |
| 2026-05-08 10:23 | 37.11497 | -80.18530 | 33920 ft | 307 kts | 243° |
| 2026-05-08 10:23 | 37.10068 | -80.20464 | 33516 ft | 307 kts | 243° |
| 2026-05-08 10:23 | 37.08615 | -80.22425 | 33132 ft | 307 kts | 242° |
| 2026-05-08 10:23 | 37.07172 | -80.24371 | 32708 ft | 305 kts | 241° |
| 2026-05-08 10:24 | 37.05738 | -80.26301 | 32304 ft | 302 kts | 242° |
| 2026-05-08 10:24 | 37.04301 | -80.28236 | 31896 ft | 301 kts | 241° |
| 2026-05-08 10:24 | 37.02893 | -80.30134 | 31505 ft | 302 kts | 240° |
| 2026-05-08 10:24 | 37.01353 | -80.31967 | 31107 ft | 314 kts | 232° |
| 2026-05-08 10:25 | 36.99501 | -80.33536 | 30687 ft | 321 kts | 229° |
| 2026-05-08 10:25 | 36.97652 | -80.35043 | 30271 ft | 321 kts | 228° |
| 2026-05-08 10:25 | 36.95771 | -80.36577 | 29847 ft | 321 kts | 227° |
| 2026-05-08 10:25 | 36.93892 | -80.38110 | 29394 ft | 319 kts | 227° |
| 2026-05-08 10:26 | 36.92052 | -80.39607 | 28982 ft | 318 kts | 227° |
| 2026-05-08 10:26 | 36.90213 | -80.41107 | 28570 ft | 317 kts | 227° |
| 2026-05-08 10:26 | 36.88358 | -80.42619 | 28148 ft | 316 kts | 226° |
| 2026-05-08 10:26 | 36.86533 | -80.44105 | 27731 ft | 315 kts | 226° |
| 2026-05-08 10:27 | 36.84826 | -80.45494 | 27340 ft | 313 kts | 227° |
| 2026-05-08 10:27 | 36.83000 | -80.46981 | 26927 ft | 313 kts | 226° |
| 2026-05-08 10:27 | 36.81313 | -80.48354 | 26552 ft | 312 kts | 226° |
| 2026-05-08 10:27 | 36.79505 | -80.49822 | 26128 ft | 309 kts | 226° |
| 2026-05-08 10:28 | 36.77706 | -80.51283 | 25731 ft | 309 kts | 226° |
| 2026-05-08 10:28 | 36.75908 | -80.52746 | 25314 ft | 309 kts | 226° |
| 2026-05-08 10:28 | 36.74118 | -80.54198 | 24920 ft | 307 kts | 226° |
| 2026-05-08 10:28 | 36.72315 | -80.55661 | 24505 ft | 307 kts | 226° |
| 2026-05-08 10:29 | 36.70530 | -80.57110 | 24097 ft | 307 kts | 225° |
| 2026-05-08 10:29 | 36.68744 | -80.58558 | 23683 ft | 306 kts | 225° |
| 2026-05-08 10:29 | 36.66978 | -80.59988 | 23286 ft | 305 kts | 225° |
| 2026-05-08 10:29 | 36.65207 | -80.61422 | 22887 ft | 304 kts | 225° |
| 2026-05-08 10:30 | 36.63432 | -80.62860 | 22491 ft | 305 kts | 225° |
| 2026-05-08 10:30 | 36.61671 | -80.64286 | 22079 ft | 304 kts | 225° |
| 2026-05-08 10:30 | 36.59889 | -80.65726 | 21680 ft | 303 kts | 224° |
| 2026-05-08 10:30 | 36.58127 | -80.67151 | 21283 ft | 302 kts | 224° |
| 2026-05-08 10:31 | 36.56361 | -80.68578 | 20876 ft | 301 kts | 224° |
| 2026-05-08 10:31 | 36.54661 | -80.69948 | 20493 ft | 300 kts | 224° |
| 2026-05-08 10:31 | 36.52905 | -80.71365 | 20105 ft | 300 kts | 224° |
| 2026-05-08 10:31 | 36.51157 | -80.72775 | 19716 ft | 300 kts | 224° |
| 2026-05-08 10:32 | 36.49417 | -80.74180 | 19316 ft | 299 kts | 223° |
| 2026-05-08 10:32 | 36.47678 | -80.75586 | 18913 ft | 298 kts | 223° |
| 2026-05-08 10:32 | 36.45931 | -80.76987 | 18503 ft | 298 kts | 224° |
| 2026-05-08 10:32 | 36.44199 | -80.78391 | 18106 ft | 295 kts | 224° |
| 2026-05-08 10:33 | 36.42499 | -80.79765 | 17729 ft | 294 kts | 224° |
| 2026-05-08 10:33 | 36.40785 | -80.81139 | 17342 ft | 294 kts | 223° |
| 2026-05-08 10:33 | 36.39071 | -80.82515 | 16945 ft | 293 kts | 223° |
| 2026-05-08 10:33 | 36.37360 | -80.83887 | 16558 ft | 293 kts | 223° |
| 2026-05-08 10:34 | 36.35651 | -80.85258 | 16169 ft | 292 kts | 222° |
| 2026-05-08 10:34 | 36.33962 | -80.86610 | 15789 ft | 291 kts | 222° |
| 2026-05-08 10:34 | 36.32269 | -80.87967 | 15404 ft | 290 kts | 222° |
| 2026-05-08 10:34 | 36.30579 | -80.89320 | 15024 ft | 288 kts | 222° |
| 2026-05-08 10:35 | 36.28888 | -80.90674 | 14646 ft | 289 kts | 221° |
| 2026-05-08 10:35 | 36.27202 | -80.92024 | 14264 ft | 288 kts | 222° |
| 2026-05-08 10:35 | 36.25536 | -80.93356 | 13882 ft | 287 kts | 221° |
| 2026-05-08 10:35 | 36.23862 | -80.94693 | 13501 ft | 285 kts | 221° |
| 2026-05-08 10:36 | 36.22197 | -80.96025 | 13125 ft | 286 kts | 220° |
| 2026-05-08 10:36 | 36.20516 | -80.97368 | 12738 ft | 285 kts | 220° |
| 2026-05-08 10:36 | 36.18859 | -80.98690 | 12352 ft | 285 kts | 220° |
| 2026-05-08 10:36 | 36.17208 | -81.00007 | 12000 ft | 282 kts | 219° |
| 2026-05-08 10:37 | 36.15558 | -81.01324 | 11592 ft | 283 kts | 219° |
| 2026-05-08 10:37 | 36.13893 | -81.02651 | 11232 ft | 280 kts | 219° |
| 2026-05-08 10:37 | 36.12269 | -81.03944 | 10859 ft | 280 kts | 218° |
| 2026-05-08 10:37 | 36.10620 | -81.05258 | 10488 ft | 280 kts | 219° |
| 2026-05-08 10:38 | 36.08992 | -81.06554 | 10127 ft | 279 kts | 218° |
| 2026-05-08 10:38 | 36.07370 | -81.07845 | 9746 ft | 277 kts | 218° |
| 2026-05-08 10:38 | 36.05745 | -81.09137 | 9392 ft | 276 kts | 218° |
| 2026-05-08 10:38 | 36.04136 | -81.10416 | 9016 ft | 276 kts | 217° |
| 2026-05-08 10:39 | 36.02522 | -81.11700 | 8651 ft | 277 kts | 217° |
| 2026-05-08 10:39 | 36.00881 | -81.13004 | 8280 ft | 278 kts | 217° |
| 2026-05-08 10:39 | 35.99256 | -81.14294 | 7913 ft | 278 kts | 217° |
| 2026-05-08 10:39 | 35.97631 | -81.15583 | 7552 ft | 278 kts | 217° |
| 2026-05-08 10:40 | 35.96011 | -81.16869 | 7189 ft | 279 kts | 217° |
| 2026-05-08 10:40 | 35.94364 | -81.18174 | 6816 ft | 279 kts | 217° |
| 2026-05-08 10:40 | 35.92728 | -81.19470 | 6443 ft | 280 kts | 217° |
| 2026-05-08 10:40 | 35.91091 | -81.20766 | 6073 ft | 281 kts | 216° |
| 2026-05-08 10:41 | 35.89456 | -81.22061 | 5699 ft | 280 kts | 216° |
| 2026-05-08 10:41 | 35.87906 | -81.23286 | 5349 ft | 278 kts | 216° |
| 2026-05-08 10:41 | 35.86272 | -81.24575 | 5143 ft | 275 kts | 215° |
| 2026-05-08 10:41 | 35.84656 | -81.25842 | 5048 ft | 277 kts | 215° |
| 2026-05-08 10:42 | 35.83104 | -81.27058 | 4804 ft | 268 kts | 214° |
| 2026-05-08 10:42 | 35.81550 | -81.28243 | 4528 ft | 261 kts | 214° |
| 2026-05-08 10:42 | 35.80058 | -81.29383 | 4325 ft | 235 kts | 214° |
| 2026-05-08 10:42 | 35.78839 | -81.30463 | 4356 ft | 196 kts | 234° |
| 2026-05-08 10:43 | 35.78095 | -81.31740 | 4354 ft | 176 kts | 237° |
| 2026-05-08 10:43 | 35.77348 | -81.32922 | 4309 ft | 180 kts | 238° |
| 2026-05-08 10:43 | 35.76523 | -81.34127 | 4257 ft | 187 kts | 221° |
| 2026-05-08 10:43 | 35.75288 | -81.34588 | 4175 ft | 192 kts | 174° |
| 2026-05-08 10:44 | 35.74130 | -81.33875 | 4083 ft | 189 kts | 127° |
| 2026-05-08 10:44 | 35.73613 | -81.32432 | 4029 ft | 183 kts | 101° |
| 2026-05-08 10:44 | 35.73413 | -81.30889 | 3987 ft | 182 kts | 88° |
| 2026-05-08 10:44 | 35.73400 | -81.29331 | 3915 ft | 181 kts | 86° |
| 2026-05-08 10:45 | 35.73411 | -81.27794 | 3845 ft | 181 kts | 85° |
| 2026-05-08 10:45 | 35.73422 | -81.26237 | 3775 ft | 180 kts | 86° |
| 2026-05-08 10:45 | 35.73435 | -81.24709 | 3700 ft | 180 kts | 85° |
| 2026-05-08 10:45 | 35.73451 | -81.23154 | 3629 ft | 180 kts | 85° |
| 2026-05-08 10:46 | 35.73464 | -81.21614 | 3557 ft | 180 kts | 85° |
| 2026-05-08 10:46 | 35.73525 | -81.20100 | 3528 ft | 177 kts | 72° |
| 2026-05-08 10:46 | 35.74221 | -81.18933 | 3511 ft | 167 kts | 29° |
| 2026-05-08 10:46 | 35.75318 | -81.18532 | 3543 ft | 166 kts | 10° |
| 2026-05-08 10:47 | 35.76458 | -81.18194 | 3535 ft | 167 kts | 14° |
| 2026-05-08 10:47 | 35.77570 | -81.17824 | 3527 ft | 166 kts | 14° |
| 2026-05-08 10:47 | 35.78694 | -81.17449 | 3529 ft | 167 kts | 14° |
| 2026-05-08 10:47 | 35.79833 | -81.17142 | 3522 ft | 166 kts | 1° |
| 2026-05-08 10:48 | 35.80951 | -81.17434 | 3522 ft | 167 kts | 335° |
| 2026-05-08 10:48 | 35.81835 | -81.18353 | 3529 ft | 171 kts | 307° |
| 2026-05-08 10:48 | 35.82290 | -81.19715 | 3531 ft | 175 kts | 285° |
| 2026-05-08 10:48 | 35.82710 | -81.21107 | 3525 ft | 171 kts | 306° |
| 2026-05-08 10:49 | 35.83208 | -81.22434 | 3524 ft | 176 kts | 283° |
| 2026-05-08 10:49 | 35.82997 | -81.23927 | 3525 ft | 184 kts | 245° |
| 2026-05-08 10:49 | 35.82171 | -81.25140 | 3545 ft | 188 kts | 225° |
| 2026-05-08 10:49 | 35.81228 | -81.26241 | 3500 ft | 183 kts | 231° |
| 2026-05-08 10:50 | 35.80425 | -81.27434 | 3234 ft | 174 kts | 236° |
| 2026-05-08 10:50 | 35.79750 | -81.28577 | 3030 ft | 158 kts | 238° |
| 2026-05-08 10:50 | 35.79143 | -81.29662 | 2825 ft | 150 kts | 238° |
| 2026-05-08 10:50 | 35.78559 | -81.30712 | 2635 ft | 147 kts | 239° |
| 2026-05-08 10:51 | 35.77989 | -81.31740 | 2417 ft | 144 kts | 238° |
| 2026-05-08 10:51 | 35.77423 | -81.32753 | 2230 ft | 143 kts | 237° |
| 2026-05-08 10:51 | 35.76863 | -81.33749 | 2035 ft | 141 kts | 236° |
| 2026-05-08 10:51 | 35.76304 | -81.34740 | 1843 ft | 141 kts | 235° |
| 2026-05-08 10:52 | 35.75733 | -81.35728 | 1631 ft | 140 kts | 236° |
| 2026-05-08 10:52 | 35.75193 | -81.36703 | 1452 ft | 136 kts | 236° |
| 2026-05-08 10:52 | 35.74660 | -81.37662 | 1263 ft | 136 kts | 236° |
| 2026-05-08 10:52 | 35.74140 | -81.38588 | 1162 ft | 124 kts | 235° |
| 2026-05-08 10:53 | 35.73725 | -81.39320 | 1141 ft | 56 kts | 236° |
| 2026-05-08 10:53 | 35.73577 | -81.39589 | 1138 ft | 29 kts | 236° |
| 2026-05-08 10:53 | 35.73526 | -81.39725 | 1136 ft | 3 kts | 280° |
| 2026-05-08 10:53 | 35.73548 | -81.39755 | 1136 ft | 7 kts | 339° |
| 2026-05-08 10:54 | 35.73600 | -81.39726 | 1136 ft | 10 kts | 56° |
| 2026-05-08 10:54 | 35.73647 | -81.39638 | 1137 ft | 13 kts | 56° |
| 2026-05-08 10:54 | 35.73705 | -81.39533 | 1138 ft | 16 kts | 56° |
| 2026-05-08 10:54 | 35.73775 | -81.39413 | 1140 ft | 18 kts | 55° |
| 2026-05-08 10:55 | 35.73850 | -81.39280 | 1142 ft | 19 kts | 55° |
| 2026-05-08 10:55 | 35.73931 | -81.39134 | 1145 ft | 21 kts | 57° |
| 2026-05-08 10:55 | 35.74014 | -81.38993 | 1148 ft | 19 kts | 54° |
| 2026-05-08 10:55 | 35.74083 | -81.38869 | 1152 ft | 10 kts | 51° |
| 2026-05-08 10:56 | 35.74144 | -81.38868 | 1152 ft | 10 kts | 11° |
| 2026-05-08 10:56 | 35.74200 | -81.38870 | 1152 ft | 6 kts | 318° |
| 2026-05-08 10:56 | 35.74204 | -81.38888 | 1152 ft | 0 kts | 229° |